Time;durP1;ratioP1;P1;durP2;ratioP2;P2;SDS_P1;SDS_P2;PMS_P1;PMS_P2;Temp;Humidity;BMP_temperature;BMP_pressure;BME280_temperature;BME280_humidity;BME280_pressure;Samples;Min_cycle;Max_cycle;Signal;HPM_P1;HPM_P2
2021/04/04 00:02:20;;;;;;;3.08;2.45;;;;;;;11.98;72.67;98543.50;4935479;29;20027;-82
2021/04/04 00:04:46;;;;;;;4.22;2.70;;;;;;;11.93;72.78;98546.25;4935831;29;20660;-83
2021/04/04 00:07:11;;;;;;;6.57;1.70;;;;;;;11.92;73.37;98541.97;4934450;29;20555;-87
2021/04/04 00:09:37;;;;;;;3.05;2.15;;;;;;;11.87;73.75;98544.75;4935304;29;20451;-84
2021/04/04 00:12:04;;;;;;;1.83;1.52;;;;;;;11.82;73.88;98535.72;4934998;29;20459;-82
2021/04/04 00:14:29;;;;;;;2.50;1.85;;;;;;;11.80;73.84;98537.09;4934990;29;20361;-81
2021/04/04 00:16:55;;;;;;;3.38;1.88;;;;;;;11.77;73.96;98545.75;4935274;29;20042;-83
2021/04/04 00:19:20;;;;;;;3.28;2.00;;;;;;;11.77;74.08;98545.75;4934999;29;20035;-81
2021/04/04 00:21:46;;;;;;;2.05;1.50;;;;;;;11.75;74.30;98551.38;4935853;29;20536;-79
2021/04/04 00:24:11;;;;;;;2.40;1.75;;;;;;;11.71;74.70;98539.69;4935051;29;20524;-77
2021/04/04 00:26:37;;;;;;;2.20;1.38;;;;;;;11.67;74.53;98549.41;4953085;29;20536;-78
2021/04/04 00:29:05;;;;;;;2.67;1.88;;;;;;;11.63;74.71;98546.53;4935257;29;20023;-78
2021/04/04 00:31:31;;;;;;;2.10;1.70;;;;;;;11.56;75.30;98542.63;4935242;29;20027;-80
2021/04/04 00:33:56;;;;;;;3.70;2.20;;;;;;;11.52;75.31;98545.91;4935166;29;20035;-81
2021/04/04 00:36:22;;;;;;;1.98;1.50;;;;;;;11.53;75.66;98547.50;4935207;29;20038;-81
2021/04/04 00:38:47;;;;;;;2.95;1.40;;;;;;;11.49;75.60;98545.69;4951422;29;20063;-82
2021/04/04 00:41:13;;;;;;;2.00;1.83;;;;;;;11.43;75.73;98544.19;4934942;29;20023;-82
2021/04/04 00:43:38;;;;;;;3.28;2.42;;;;;;;11.39;76.33;98552.00;4935526;29;20049;-81
2021/04/04 00:46:04;;;;;;;2.80;2.00;;;;;;;11.34;76.42;98552.88;4935157;28;20031;-79
2021/04/04 00:48:29;;;;;;;2.88;2.45;;;;;;;11.32;77.04;98549.69;4935941;29;20024;-79
2021/04/04 00:50:54;;;;;;;1.88;1.67;;;;;;;11.28;77.04;98559.41;4939005;29;20563;-78
2021/04/04 00:53:20;;;;;;;3.50;1.48;;;;;;;11.20;77.69;98558.22;4938781;29;20025;-79
2021/04/04 00:55:45;;;;;;;2.20;2.00;;;;;;;11.13;78.10;98552.44;4935499;29;20031;-77
2021/04/04 00:58:11;;;;;;;2.25;2.08;;;;;;;11.04;78.45;98546.13;4936762;29;20051;-77
2021/04/04 01:00:37;;;;;;;2.75;1.90;;;;;;;10.95;78.85;98550.53;4938610;29;20042;-77
2021/04/04 01:03:03;;;;;;;1.60;1.50;;;;;;;10.87;79.08;98555.47;4938505;29;20023;-77
2021/04/04 01:05:37;;;;;;;2.28;2.05;;;;;;;10.80;79.44;98556.91;4938511;29;20066;-77
2021/04/04 01:08:04;;;;;;;3.28;2.72;;;;;;;10.80;80.05;98571.09;4938030;29;20023;-77
2021/04/04 01:10:35;;;;;;;2.17;1.67;;;;;;;10.79;80.08;98563.34;4938306;29;20042;-77
2021/04/04 01:13:25;;;;;;;2.00;1.50;;;;;;;10.71;80.52;98554.88;4938381;29;20460;-77
2021/04/04 01:15:57;;;;;;;3.38;1.67;;;;;;;10.74;80.55;98561.53;4938476;29;20408;-77
2021/04/04 01:18:30;;;;;;;1.55;1.23;;;;;;;10.72;80.78;98561.81;4938011;29;20127;-79
2021/04/04 01:21:00;;;;;;;1.60;1.50;;;;;;;10.72;81.12;98559.16;4938582;29;20178;-78
2021/04/04 01:23:46;;;;;;;2.40;1.83;;;;;;;10.74;80.93;98564.19;4937412;29;20170;-77
2021/04/04 01:26:24;;;;;;;2.28;1.75;;;;;;;10.78;80.44;98559.88;4937968;29;20027;-80
2021/04/04 01:28:49;;;;;;;2.55;2.00;;;;;;;10.82;80.24;98557.44;4954006;29;20420;-79
2021/04/04 01:31:17;;;;;;;2.70;2.25;;;;;;;10.80;79.70;98554.25;4938142;29;20069;-81
2021/04/04 01:33:43;;;;;;;3.53;1.10;;;;;;;10.70;80.57;98542.59;4938214;29;20023;-84
2021/04/04 01:36:12;;;;;;;3.03;2.10;;;;;;;10.64;80.16;98541.06;4937819;29;20539;-80
2021/04/04 01:38:42;;;;;;;0.55;0.55;;;;;;;10.54;79.32;98547.34;4936408;29;20516;-78
2021/04/04 01:41:41;;;;;;;2.22;1.10;;;;;;;10.45;78.80;98550.94;4937830;29;20031;-80
2021/04/04 01:44:19;;;;;;;0.85;0.50;;;;;;;10.31;78.13;98572.22;4877932;29;20047;-81
2021/04/04 01:53:17;;;;;;;0.47;0.47;;;;;;;10.01;78.00;98572.28;4932901;29;20038;-81
2021/04/04 01:55:44;;;;;;;0.50;0.50;;;;;;;9.97;78.28;98570.47;4946464;29;20038;-80
2021/04/04 01:58:11;;;;;;;0.90;0.68;;;;;;;9.88;78.59;98570.28;4937527;29;20393;-79
2021/04/04 02:00:38;;;;;;;1.02;0.70;;;;;;;9.83;78.64;98563.13;4937074;29;20117;-79
2021/04/04 02:03:06;;;;;;;1.65;1.30;;;;;;;9.81;79.25;98554.59;4937715;29;20495;-79
2021/04/04 02:05:32;;;;;;;2.15;0.95;;;;;;;9.78;79.27;98561.28;4937515;29;20031;-78
2021/04/04 02:07:59;;;;;;;1.42;0.82;;;;;;;9.76;79.53;98563.47;4937345;29;20417;-77
2021/04/04 02:10:27;;;;;;;1.73;1.30;;;;;;;9.76;79.38;98563.47;4937146;29;20441;-77
2021/04/04 02:12:56;;;;;;;1.20;1.10;;;;;;;9.77;79.79;98565.03;4950489;29;20035;-77
2021/04/04 02:15:25;;;;;;;;;;;;;;;9.77;79.23;98562.34;4954963;29;20019;-77
2021/04/04 02:17:51;;;;;;;1.50;1.33;;;;;;;9.76;79.62;98574.16;4937421;29;19910;-78
2021/04/04 02:20:21;;;;;;;2.15;1.60;;;;;;;9.75;79.48;98569.88;4937128;29;20023;-78
2021/04/04 02:22:48;;;;;;;5.00;1.95;;;;;;;9.80;79.21;98570.91;4937325;29;20154;-78
2021/04/04 02:25:16;;;;;;;1.80;1.70;;;;;;;9.84;79.31;98578.06;4954172;29;20097;-78
2021/04/04 02:27:46;;;;;;;2.22;1.88;;;;;;;9.87;79.05;98579.38;4936974;29;20027;-77
2021/04/04 02:30:15;;;;;;;2.65;2.35;;;;;;;9.90;78.77;98582.28;4953489;29;20038;-78
2021/04/04 02:32:48;;;;;;;3.50;2.05;;;;;;;9.90;78.36;98582.28;4936993;29;20039;-78
2021/04/04 02:35:21;;;;;;;3.38;2.38;;;;;;;9.95;78.41;98576.09;4952558;29;20133;-77
2021/04/04 02:37:48;;;;;;;3.10;2.45;;;;;;;9.94;78.24;98574.50;4936366;29;20073;-78
2021/04/04 02:40:15;;;;;;;4.95;2.80;;;;;;;9.97;78.54;98586.47;4936584;29;20579;-77
2021/04/04 02:42:45;;;;;;;2.65;2.45;;;;;;;9.98;77.77;98583.53;4954196;29;20031;-78
2021/04/04 02:45:15;;;;;;;3.58;2.78;;;;;;;9.97;78.07;98586.47;4954486;29;20035;-85
2021/04/04 02:48:11;;;;;;;4.53;3.15;;;;;;;10.00;77.66;98596.63;4920665;29;20043;-82
2021/04/04 02:50:37;;;;;;;3.53;3.03;;;;;;;9.93;76.95;98597.72;4934085;29;20522;-84
2021/04/04 02:53:04;;;;;;;3.75;2.90;;;;;;;9.94;77.01;98609.22;4936254;29;20025;-88
2021/04/04 02:55:33;;;;;;;3.88;2.80;;;;;;;9.93;76.58;98621.75;4935949;29;20023;-78
2021/04/04 02:58:02;;;;;;;3.85;2.42;;;;;;;9.91;75.96;98615.13;4936199;29;20491;-79
2021/04/04 03:00:28;;;;;;;6.95;3.40;;;;;;;9.86;76.02;98621.31;4953781;29;20034;-78
2021/04/04 03:02:55;;;;;;;3.83;2.70;;;;;;;9.80;76.18;98611.75;4954326;29;20023;-77
2021/04/04 03:05:25;;;;;;;3.63;2.78;;;;;;;9.72;76.39;98604.34;4937099;29;20022;-78
2021/04/04 03:07:52;;;;;;;3.28;2.40;;;;;;;9.65;75.97;98609.22;4938873;29;20062;-78
2021/04/04 03:10:17;;;;;;;1.65;1.55;;;;;;;9.58;75.76;98618.34;4937885;29;20020;-78
2021/04/04 03:12:46;;;;;;;2.03;1.40;;;;;;;9.56;75.48;98617.03;4954378;28;20042;-78
2021/04/04 03:15:15;;;;;;;2.67;1.88;;;;;;;9.46;75.69;98596.56;4920445;29;20416;-78
2021/04/04 03:17:42;;;;;;;2.42;1.70;;;;;;;9.38;75.21;98605.94;4920100;29;20035;-78
2021/04/04 03:20:10;;;;;;;3.45;1.77;;;;;;;9.29;76.31;98618.31;4943178;29;20090;-78
2021/04/04 03:22:39;;;;;;;3.40;1.38;;;;;;;9.24;76.11;98618.31;4938572;29;20038;-78
2021/04/04 03:25:07;;;;;;;2.55;1.40;;;;;;;9.19;76.14;98627.19;4938903;29;20061;-78
2021/04/04 03:27:35;;;;;;;2.28;1.60;;;;;;;9.18;76.20;98630.09;4937447;29;20033;-79
2021/04/04 03:30:02;;;;;;;1.83;1.00;;;;;;;9.13;75.63;98634.41;4936950;29;20027;-79
2021/04/04 03:32:27;;;;;;;1.35;1.20;;;;;;;9.06;76.16;98641.91;4937459;29;20061;-78
2021/04/04 03:45:51;;;;;;;1.48;1.25;;;;;;;9.00;76.60;98627.03;5050000;23;20079;-80
2021/04/04 03:49:08;;;;;;;1.73;1.13;;;;;;;8.97;76.42;98623.03;4940257;29;20043;-82
2021/04/04 03:51:34;;;;;;;1.33;1.10;;;;;;;8.95;76.30;98622.50;4901910;29;20036;-79
2021/04/04 03:54:00;;;;;;;1.65;1.50;;;;;;;8.94;76.81;98625.44;4921578;29;20020;-79
2021/04/04 03:56:29;;;;;;;3.53;1.08;;;;;;;8.90;76.14;98619.06;4928541;29;20057;-78
2021/04/04 03:58:57;;;;;;;1.48;1.38;;;;;;;8.88;76.13;98632.69;4937311;29;20023;-78
2021/04/04 04:01:25;;;;;;;1.38;1.27;;;;;;;8.85;76.27;98638.56;4939382;29;20031;-78
2021/04/04 04:03:52;;;;;;;1.98;1.17;;;;;;;8.81;76.76;98637.50;4956832;29;20027;-78
2021/04/04 04:06:18;;;;;;;1.80;1.30;;;;;;;8.80;76.22;98634.06;4938934;29;20066;-77
2021/04/04 04:08:45;;;;;;;3.60;1.20;;;;;;;8.74;76.77;98635.16;4956251;29;20399;-77
2021/04/04 04:11:11;;;;;;;2.30;1.20;;;;;;;8.74;76.08;98631.66;4956249;29;20095;-77
2021/04/04 04:13:39;;;;;;;2.60;1.25;;;;;;;8.75;76.32;98635.94;4955051;29;20023;-77
2021/04/04 04:16:05;;;;;;;1.42;1.08;;;;;;;8.72;76.17;98639.94;4939248;29;20035;-77
2021/04/04 04:18:31;;;;;;;1.63;1.40;;;;;;;8.71;76.07;98645.56;4937411;29;20381;-77
2021/04/04 04:20:57;;;;;;;2.20;1.50;;;;;;;8.70;75.70;98643.97;4955821;29;20459;-77
2021/04/04 04:23:23;;;;;;;1.92;1.67;;;;;;;8.71;76.05;98648.22;4956991;28;20065;-76
2021/04/04 04:25:52;;;;;;;2.25;1.50;;;;;;;8.67;76.32;98645.31;4962606;29;20079;-78
2021/04/04 04:31:34;;;;;;;3.47;1.30;;;;;;;8.68;76.36;98662.09;4965015;29;19973;-78
2021/04/04 04:34:01;;;;;;;1.58;1.25;;;;;;;8.69;75.93;98669.84;4943684;29;20114;-79
2021/04/04 04:36:30;;;;;;;1.55;1.15;;;;;;;8.65;76.23;98674.09;4943508;29;20101;-78
2021/04/04 04:38:57;;;;;;;2.13;1.42;;;;;;;8.67;76.35;98682.63;4944245;29;20023;-78
2021/04/04 04:41:23;;;;;;;4.38;2.30;;;;;;;8.66;76.32;98694.38;4943827;29;20024;-77
2021/04/04 04:43:55;;;;;;;2.97;2.13;;;;;;;8.66;76.60;98689.03;4942418;29;20110;-77
2021/04/04 04:46:21;;;;;;;3.10;1.73;;;;;;;8.64;76.67;98685.81;4957688;29;20392;-75
2021/04/04 04:48:47;;;;;;;2.63;1.77;;;;;;;8.65;75.92;98695.44;4957672;29;20023;-77
2021/04/04 04:55:18;;;;;;;4.38;1.98;;;;;;;8.51;76.25;98697.88;4965484;29;20063;-81
2021/04/04 04:58:27;;;;;;;2.45;2.25;;;;;;;8.52;76.92;98699.47;4957502;29;20027;-80
2021/04/04 05:01:21;;;;;;;4.90;2.05;;;;;;;8.52;76.01;98704.81;4927588;29;20056;-80
2021/04/04 05:03:54;;;;;;;3.30;2.67;;;;;;;8.53;76.85;98709.03;4933545;29;20046;-81
2021/04/04 05:10:36;;;;;;;4.30;2.55;;;;;;;8.50;76.91;98717.59;4941166;29;20103;-81
2021/04/04 05:17:22;;;;;;;3.72;2.13;;;;;;;8.51;77.02;98719.19;4900835;29;20129;-81
2021/04/04 05:26:52;;;;;;;5.70;2.47;;;;;;;8.43;78.17;98719.72;4867341;29;20057;-80
2021/04/04 05:49:25;;;;;;;6.85;3.22;;;;;;;8.45;79.34;98750.34;4951074;29;20041;-81
2021/04/04 05:52:06;;;;;;;3.55;2.40;;;;;;;8.42;78.80;98747.41;4939081;29;20476;-78
2021/04/04 05:54:46;;;;;;;7.03;4.22;;;;;;;8.43;79.36;98755.13;4941065;29;20420;-77
2021/04/04 05:57:19;;;;;;;5.57;3.70;;;;;;;8.39;79.12;98756.75;4923962;29;20381;-77
2021/04/04 05:59:53;;;;;;;3.05;2.30;;;;;;;8.37;79.01;98753.56;4920984;29;20024;-78
2021/04/04 06:02:43;;;;;;;7.07;3.40;;;;;;;8.34;79.51;98762.09;4919224;29;20023;-77
2021/04/04 06:05:30;;;;;;;10.75;5.15;;;;;;;8.34;79.40;98762.88;4937928;29;20019;-78
2021/04/04 06:08:07;;;;;;;5.70;3.58;;;;;;;8.39;79.92;98766.63;4943956;29;20023;-78
2021/04/04 06:10:49;;;;;;;3.28;2.70;;;;;;;8.42;79.38;98764.22;4938424;29;20369;-79
2021/04/04 06:13:34;;;;;;;5.13;3.08;;;;;;;8.43;79.38;98768.47;4936941;29;20034;-78
2021/04/04 06:16:41;;;;;;;3.58;2.88;;;;;;;8.48;79.94;98773.03;4923910;29;20046;-78
2021/04/04 06:19:32;;;;;;;3.55;3.13;;;;;;;8.49;80.06;98772.78;4875362;29;20038;-80
2021/04/04 06:22:18;;;;;;;4.30;3.50;;;;;;;8.55;79.54;98780.75;4936578;29;20366;-80
2021/04/04 06:24:53;;;;;;;3.97;2.75;;;;;;;8.53;79.49;98781.00;4935837;29;20468;-79
2021/04/04 06:27:35;;;;;;;4.65;3.28;;;;;;;8.54;79.26;98776.50;4937545;29;20029;-80
2021/04/04 06:30:46;;;;;;;3.55;2.83;;;;;;;8.55;79.03;98783.44;4939368;29;20030;-77
2021/04/04 06:33:12;;;;;;;4.32;3.47;;;;;;;8.56;79.67;98783.16;4952677;29;20027;-78
2021/04/04 06:35:44;;;;;;;4.35;3.70;;;;;;;8.63;79.10;98780.22;4940103;29;20055;-77
2021/04/04 06:38:36;;;;;;;4.47;3.33;;;;;;;8.67;79.02;98773.28;4940021;29;20531;-77
2021/04/04 06:41:20;;;;;;;4.05;2.70;;;;;;;8.69;78.78;98768.47;4940281;29;20027;-78
2021/04/04 06:44:13;;;;;;;9.15;2.88;;;;;;;8.79;78.41;98773.78;4940510;29;20081;-76
2021/04/04 06:47:06;;;;;;;5.72;4.07;;;;;;;8.85;78.36;98789.75;4957019;28;20027;-76
2021/04/04 06:49:49;;;;;;;3.20;2.55;;;;;;;8.86;78.52;98786.84;4939805;29;20361;-76
2021/04/04 06:52:14;;;;;;;5.60;2.92;;;;;;;8.97;78.05;98803.59;4938257;29;20027;-76
2021/04/04 06:55:01;;;;;;;6.03;3.38;;;;;;;9.01;77.82;98815.31;4955912;29;20033;-77
2021/04/04 06:57:53;;;;;;;4.95;3.22;;;;;;;9.08;77.87;98802.50;4956959;29;20031;-76
2021/04/04 07:00:32;;;;;;;5.55;3.63;;;;;;;9.13;77.40;98820.38;4928434;29;20035;-76
2021/04/04 07:03:07;;;;;;;6.00;3.28;;;;;;;9.17;77.73;98831.28;4955919;29;20113;-77
2021/04/04 07:05:39;;;;;;;4.70;3.35;;;;;;;9.23;77.00;98830.22;4955346;29;20019;-76
2021/04/04 07:08:48;;;;;;;7.18;3.22;;;;;;;9.29;76.71;98835.25;4954524;29;20049;-76
2021/04/04 07:11:24;;;;;;;6.45;2.85;;;;;;;9.33;76.42;98826.72;4955185;29;20045;-75
2021/04/04 07:14:08;;;;;;;4.20;2.90;;;;;;;9.32;76.21;98839.22;4956260;29;20035;-76
2021/04/04 07:17:06;;;;;;;3.28;2.25;;;;;;;9.29;76.07;98837.91;4955872;29;20031;-78
2021/04/04 07:19:59;;;;;;;4.05;2.70;;;;;;;9.31;76.52;98837.63;4939033;29;20420;-76
2021/04/04 07:22:36;;;;;;;2.92;2.33;;;;;;;9.31;76.33;98828.84;4939170;29;20023;-76
2021/04/04 07:25:11;;;;;;;5.13;2.72;;;;;;;9.39;75.60;98829.06;4955465;29;20046;-77
2021/04/04 07:28:07;;;;;;;4.28;2.67;;;;;;;9.37;76.05;98830.41;4955571;29;20090;-77
2021/04/04 07:30:45;;;;;;;5.05;2.80;;;;;;;9.34;75.89;98837.09;4938499;29;20475;-77
2021/04/04 07:33:23;;;;;;;3.88;2.72;;;;;;;9.36;75.76;98853.66;4938172;29;20166;-77
2021/04/04 07:36:31;;;;;;;3.47;2.40;;;;;;;9.35;75.77;98837.88;4919473;29;20085;-83
2021/04/04 07:39:03;;;;;;;4.07;2.65;;;;;;;9.41;76.06;98842.13;4917979;29;20031;-82
2021/04/04 07:41:47;;;;;;;4.80;3.08;;;;;;;9.42;75.34;98844.56;4905025;29;20035;-80
2021/04/04 07:44:38;;;;;;;4.68;2.55;;;;;;;9.42;75.02;98852.56;4918280;29;20551;-79
2021/04/04 07:47:14;;;;;;;3.85;2.72;;;;;;;9.39;75.56;98852.31;4905644;29;20040;-77
2021/04/04 07:49:47;;;;;;;3.53;2.65;;;;;;;9.41;75.11;98834.13;4916057;29;20028;-80
2021/04/04 07:52:24;;;;;;;3.65;2.15;;;;;;;9.36;74.46;98842.16;4898437;29;20485;-79
2021/04/04 07:55:08;;;;;;;4.03;2.90;;;;;;;9.39;75.56;98841.63;4898922;29;20028;-79
2021/04/04 07:57:59;;;;;;;3.80;2.05;;;;;;;9.35;74.51;98849.38;4915681;29;20034;-79
2021/04/04 08:00:25;;;;;;;3.22;2.58;;;;;;;9.36;74.83;98859.00;4898516;29;20047;-76
2021/04/04 08:03:03;;;;;;;3.67;2.50;;;;;;;9.37;74.53;98857.88;4915885;29;20393;-79
2021/04/04 08:05:31;;;;;;;2.43;2.23;;;;;;;9.40;74.62;98864.56;4921776;29;20027;-77
2021/04/04 08:08:06;;;;;;;2.92;2.17;;;;;;;9.39;73.69;98870.97;4907968;29;20024;-78
2021/04/04 08:11:06;;;;;;;3.38;2.28;;;;;;;9.39;73.71;98876.31;4899277;29;20545;-79
2021/04/04 08:13:39;;;;;;;3.35;2.65;;;;;;;9.41;73.10;98871.50;4908222;29;20034;-80
2021/04/04 08:16:19;;;;;;;3.45;2.83;;;;;;;9.38;72.43;98864.03;4911931;29;20516;-79
2021/04/04 08:18:47;;;;;;;3.13;2.08;;;;;;;9.30;70.55;98846.69;4901026;29;20115;-79
2021/04/04 08:21:20;;;;;;;4.90;2.92;;;;;;;9.26;71.44;98851.00;4918655;29;20064;-79
2021/04/04 08:24:08;;;;;;;3.97;2.97;;;;;;;9.25;72.89;98849.41;4919379;29;20063;-79
2021/04/04 08:26:55;;;;;;;5.45;2.53;;;;;;;9.26;73.08;98851.00;4910545;29;20059;-79
2021/04/04 08:29:25;;;;;;;3.13;2.58;;;;;;;9.19;71.35;98853.97;4917066;29;20051;-79
2021/04/04 08:32:38;;;;;;;3.85;2.55;;;;;;;9.18;72.33;98867.56;4918524;29;20024;-80
2021/04/04 08:35:07;;;;;;;2.63;2.33;;;;;;;9.13;72.15;98877.19;4902242;29;20166;-79
2021/04/04 08:37:52;;;;;;;3.30;2.67;;;;;;;9.15;72.55;98886.78;4898956;29;20473;-78
2021/04/04 08:40:19;;;;;;;3.28;2.67;;;;;;;9.17;72.11;98880.09;4898975;29;20024;-79
2021/04/04 08:42:48;;;;;;;4.80;3.55;;;;;;;9.18;71.85;98884.38;4898513;29;20103;-79
2021/04/04 08:45:27;;;;;;;2.85;2.28;;;;;;;9.15;71.07;98876.91;4897528;29;20039;-79
2021/04/04 08:47:55;;;;;;;3.25;2.33;;;;;;;9.17;71.76;98884.63;4898401;29;20039;-79
2021/04/04 08:50:21;;;;;;;3.33;2.35;;;;;;;9.20;72.21;98878.75;4898206;29;20024;-80
2021/04/04 08:53:07;;;;;;;3.33;2.85;;;;;;;9.27;72.71;98879.28;4916054;29;20046;-79
2021/04/04 08:55:36;;;;;;;4.13;3.08;;;;;;;9.31;73.53;98882.22;4932849;29;20114;-79
2021/04/04 08:58:02;;;;;;;4.93;3.70;;;;;;;9.40;73.62;98891.28;4915492;29;20166;-82
2021/04/04 09:00:30;;;;;;;3.33;3.03;;;;;;;9.41;73.00;98876.81;4915548;29;20035;-81
2021/04/04 09:02:55;;;;;;;4.40;2.83;;;;;;;9.46;72.63;98882.19;4913619;29;20031;-89
2021/04/04 09:06:04;;;;;;;4.25;3.08;;;;;;;9.45;72.01;98884.03;4911391;29;20122;-89
2021/04/04 09:35:46;;;;;;;9.00;5.78;;;;;;;8.88;76.49;98878.00;5149333;23;20070;-85
2021/04/04 09:52:48;;;;;;;14.85;7.72;;;;;;;8.63;72.55;98868.19;5223368;23;20069;-85
2021/04/04 10:10:52;;;;;;;11.77;7.15;;;;;;;8.43;71.48;98883.06;5696243;23;20070;-82
2021/04/04 10:24:47;;;;;;;16.27;10.07;;;;;;;8.75;72.86;98884.72;5047734;28;20435;-78
2021/04/04 10:27:25;;;;;;;17.17;9.75;;;;;;;8.72;71.73;98874.56;5042614;28;20034;-78
2021/04/04 10:30:12;;;;;;;18.55;10.73;;;;;;;8.70;72.03;98871.34;5026759;28;20036;-73
2021/04/04 10:32:48;;;;;;;19.45;10.88;;;;;;;8.63;72.76;98860.97;5026453;28;20026;-75
2021/04/04 10:35:31;;;;;;;20.77;12.32;;;;;;;8.58;72.67;98862.84;5025351;28;20025;-75
2021/04/04 10:38:08;;;;;;;27.60;14.65;;;;;;;8.55;73.32;98866.06;5027780;28;20025;-75
2021/04/04 10:40:52;;;;;;;23.98;14.63;;;;;;;8.48;74.31;98872.44;5027716;28;20363;-75
2021/04/04 10:43:35;;;;;;;22.77;13.63;;;;;;;8.50;75.46;98869.50;5026673;28;20436;-76
2021/04/04 10:46:10;;;;;;;15.32;9.43;;;;;;;8.39;73.92;98860.69;5027671;28;20018;-76
2021/04/04 10:48:39;;;;;;;17.23;9.75;;;;;;;8.31;73.79;98858.53;5027802;28;20517;-76
2021/04/04 10:51:05;;;;;;;;;;;;;;;8.31;75.83;98855.88;5028347;28;20028;-75
2021/04/04 10:53:32;;;;;;;17.75;10.77;;;;;;;8.27;76.19;98860.13;5027564;28;20021;-76
2021/04/04 10:55:57;;;;;;;18.15;10.98;;;;;;;8.22;76.36;98850.28;5027419;28;20052;-75
2021/04/04 10:58:27;;;;;;;16.80;10.38;;;;;;;8.18;77.26;98839.34;5026414;28;20022;-76
2021/04/04 11:00:58;;;;;;;15.40;9.15;;;;;;;8.12;77.49;98839.63;5027180;28;20048;-76
2021/04/04 11:03:24;;;;;;;17.27;10.10;;;;;;;8.13;77.81;98857.19;5027904;28;20031;-76
2021/04/04 11:05:50;;;;;;;16.75;10.13;;;;;;;8.15;77.57;98877.19;5026234;28;20479;-76
2021/04/04 11:08:19;;;;;;;22.52;11.30;;;;;;;8.15;77.26;98865.72;5027189;28;20018;-75
2021/04/04 11:10:46;;;;;;;15.93;10.85;;;;;;;8.10;77.23;98841.75;5027512;28;20025;-76
2021/04/04 11:13:15;;;;;;;23.67;12.20;;;;;;;8.07;77.35;98845.72;5026798;28;20046;-75
2021/04/04 11:15:48;;;;;;;25.38;14.15;;;;;;;8.03;77.32;98844.66;5027241;28;20021;-75
2021/04/04 11:18:17;;;;;;;22.48;13.00;;;;;;;8.02;77.20;98841.19;5027014;28;20038;-75
2021/04/04 11:20:46;;;;;;;17.17;11.63;;;;;;;7.97;76.77;98838.53;5025975;28;20497;-75
2021/04/04 11:23:19;;;;;;;24.60;14.85;;;;;;;7.96;77.49;98836.91;5025325;28;20375;-75
2021/04/04 11:25:45;;;;;;;15.95;10.35;;;;;;;7.96;76.70;98834.25;5013595;28;20044;-75
2021/04/04 11:28:16;;;;;;;14.13;9.38;;;;;;;7.88;74.92;98832.09;5013864;28;20026;-75
2021/04/04 11:30:42;;;;;;;17.70;10.30;;;;;;;7.81;74.68;98826.22;5013795;28;20053;-74
2021/04/04 11:33:21;;;;;;;17.30;10.60;;;;;;;7.74;75.33;98812.38;5013407;28;20033;-75
2021/04/04 11:35:56;;;;;;;14.40;8.88;;;;;;;7.64;76.36;98819.28;5014017;28;20030;-75
2021/04/04 11:38:21;;;;;;;20.63;10.40;;;;;;;7.55;76.46;98804.09;5012374;28;20030;-75
2021/04/04 11:41:09;;;;;;;15.98;9.38;;;;;;;7.58;76.46;98816.84;5013495;28;20025;-75
2021/04/04 11:43:36;;;;;;;13.13;8.60;;;;;;;7.57;77.41;98812.59;5013824;28;20112;-75
2021/04/04 11:46:01;;;;;;;16.08;9.00;;;;;;;7.55;78.04;98825.38;5013284;28;20034;-74
2021/04/04 11:48:31;;;;;;;16.92;9.60;;;;;;;7.53;77.67;98821.09;5013415;28;20026;-75
2021/04/04 11:51:12;;;;;;;15.13;9.27;;;;;;;7.52;77.00;98813.41;5013279;28;20092;-75
2021/04/04 11:53:47;;;;;;;12.85;6.88;;;;;;;7.48;76.47;98814.97;5013460;28;20531;-76
2021/04/04 11:56:46;;;;;;;12.57;7.32;;;;;;;7.45;76.55;98818.94;5011992;28;20064;-74
2021/04/04 11:59:13;;;;;;;15.80;8.00;;;;;;;7.41;77.60;98806.41;5013099;28;20088;-74
2021/04/04 12:01:38;;;;;;;12.13;8.43;;;;;;;7.38;77.73;98807.75;5012404;28;20026;-76
2021/04/04 12:04:21;;;;;;;10.32;6.40;;;;;;;7.31;76.95;98805.34;4993317;28;20041;-75
2021/04/04 12:06:46;;;;;;;14.45;8.85;;;;;;;7.22;77.49;98809.53;4993499;28;20030;-76
2021/04/04 12:09:12;;;;;;;10.25;7.25;;;;;;;7.19;77.25;98807.41;5004039;28;20083;-77
2021/04/04 12:11:39;;;;;;;11.07;7.10;;;;;;;7.14;77.24;98794.88;5006049;28;20544;-77
2021/04/04 12:14:04;;;;;;;14.68;8.85;;;;;;;7.13;78.33;98795.13;4997872;28;20026;-76
2021/04/04 12:16:46;;;;;;;13.52;8.15;;;;;;;7.04;77.59;98776.22;4995844;28;20022;-74
2021/04/04 12:19:12;;;;;;;15.35;8.68;;;;;;;7.09;76.61;98781.56;4999324;28;20033;-77
2021/04/04 12:21:48;;;;;;;16.00;7.68;;;;;;;7.05;76.35;98786.63;4997289;28;20038;-76
2021/04/04 12:24:14;;;;;;;10.10;7.28;;;;;;;7.01;77.46;98785.50;5002920;28;20037;-78
2021/04/04 12:26:39;;;;;;;11.18;6.70;;;;;;;6.97;77.53;98778.31;5008109;28;20033;-76
2021/04/04 12:29:05;;;;;;;13.35;8.50;;;;;;;6.91;77.46;98768.72;5001104;28;20019;-75
2021/04/04 12:31:37;;;;;;;15.13;8.45;;;;;;;6.94;77.72;98773.53;4991801;28;20061;-75
2021/04/04 12:34:04;;;;;;;13.60;8.27;;;;;;;6.89;79.09;98772.41;4995159;28;20050;-76
2021/04/04 12:36:29;;;;;;;13.50;7.18;;;;;;;6.92;78.64;98770.31;5000449;28;20538;-75
2021/04/04 12:38:57;;;;;;;12.30;6.95;;;;;;;6.95;79.58;98775.13;5008939;28;20109;-76
2021/04/04 12:41:23;;;;;;;10.43;7.13;;;;;;;6.97;79.04;98773.81;5005499;28;20018;-77
2021/04/04 12:43:48;;;;;;;10.00;6.53;;;;;;;6.96;79.89;98761.56;5002247;28;20026;-77
2021/04/04 12:46:14;;;;;;;7.93;5.57;;;;;;;6.97;79.71;98759.69;5008981;28;20410;-77
2021/04/04 12:48:40;;;;;;;9.30;6.18;;;;;;;6.92;79.44;98752.53;4996997;28;20029;-75
2021/04/04 12:51:05;;;;;;;9.70;6.53;;;;;;;6.88;79.57;98754.91;5024213;28;20032;-75
2021/04/04 12:53:36;;;;;;;9.35;6.55;;;;;;;6.87;80.13;98747.97;5009350;28;20385;-75
2021/04/04 12:56:02;;;;;;;11.38;6.57;;;;;;;6.92;79.25;98749.03;5001958;28;20022;-75
2021/04/04 12:58:36;;;;;;;8.98;6.57;;;;;;;6.82;79.35;98725.88;4992953;28;20030;-74
2021/04/04 13:01:04;;;;;;;11.40;6.03;;;;;;;6.80;79.28;98734.13;5000831;28;20084;-75
2021/04/04 13:03:33;;;;;;;10.65;6.65;;;;;;;6.80;78.92;98738.63;5008894;28;20037;-77
2021/04/04 13:05:59;;;;;;;8.73;6.05;;;;;;;6.77;80.09;98721.31;4995761;28;20080;-78
2021/04/04 13:08:28;;;;;;;9.43;5.72;;;;;;;6.71;79.70;98719.69;4996101;28;20045;-76
2021/04/04 13:10:57;;;;;;;9.40;5.10;;;;;;;6.69;79.37;98714.66;4995570;28;20028;-76
2021/04/04 13:13:26;;;;;;;8.27;6.15;;;;;;;6.66;80.13;98725.78;5001362;28;20110;-75
2021/04/04 13:15:56;;;;;;;9.25;5.97;;;;;;;6.62;80.91;98721.28;4996771;28;20024;-76
2021/04/04 13:18:29;;;;;;;13.75;5.90;;;;;;;6.61;81.07;98714.34;5005590;28;20024;-75
2021/04/04 13:21:00;;;;;;;9.43;7.07;;;;;;;6.62;81.74;98718.63;5011220;28;20022;-75
2021/04/04 13:23:27;;;;;;;11.75;6.90;;;;;;;6.57;81.67;98716.72;5004479;28;20120;-75
2021/04/04 13:25:53;;;;;;;12.30;6.93;;;;;;;6.61;82.30;98724.97;5011751;28;20025;-75
2021/04/04 13:28:32;;;;;;;12.32;7.68;;;;;;;6.61;82.54;98715.13;5009683;28;20026;-75
2021/04/04 13:31:17;;;;;;;9.32;6.55;;;;;;;6.69;82.34;98724.50;5007903;28;20034;-74
2021/04/04 13:33:45;;;;;;;9.15;5.95;;;;;;;6.70;82.70;98718.09;5009887;28;20036;-76
2021/04/04 13:36:21;;;;;;;9.87;6.67;;;;;;;6.71;82.68;98722.38;5007988;28;20072;-77
2021/04/04 13:38:50;;;;;;;6.93;4.32;;;;;;;6.59;80.15;98721.78;5002665;28;20026;-73
2021/04/04 13:41:18;;;;;;;7.88;4.63;;;;;;;6.59;81.49;98711.13;4997818;28;20034;-74
2021/04/04 13:43:51;;;;;;;7.63;5.47;;;;;;;6.56;81.78;98713.25;5000577;28;20026;-75
2021/04/04 13:46:47;;;;;;;7.28;5.07;;;;;;;6.55;83.58;98702.88;4998700;28;20045;-77
2021/04/04 13:49:13;;;;;;;11.48;7.30;;;;;;;6.44;83.13;98691.41;4992847;28;20085;-74
2021/04/04 13:51:41;;;;;;;9.00;6.40;;;;;;;6.44;82.27;98687.97;4996788;28;20052;-74
2021/04/04 13:54:12;;;;;;;14.43;6.45;;;;;;;6.39;82.68;98700.13;5003215;28;20032;-77
2021/04/04 13:56:44;;;;;;;7.97;5.13;;;;;;;6.34;82.24;98710.72;4998573;28;20112;-74
2021/04/04 13:59:12;;;;;;;12.30;7.35;;;;;;;6.29;83.32;98689.47;4999488;28;20034;-76
2021/04/04 14:01:41;;;;;;;9.40;6.22;;;;;;;6.19;83.62;98686.72;4992472;28;20677;-77
2021/04/04 14:04:07;;;;;;;10.20;6.47;;;;;;;6.11;82.79;98682.69;5001622;28;20038;-86
2021/04/04 14:06:41;;;;;;;10.07;6.60;;;;;;;6.12;83.92;98692.28;4999387;28;20034;-85
2021/04/04 14:09:09;;;;;;;11.45;6.18;;;;;;;6.09;83.20;98690.13;4995129;28;20026;-86
2021/04/04 14:11:36;;;;;;;12.95;6.35;;;;;;;6.05;83.47;98675.75;4990950;28;20109;-90
2021/04/04 14:14:03;;;;;;;13.73;8.02;;;;;;;6.07;83.42;98693.03;4990043;28;20122;-90
2021/04/04 14:16:30;;;;;;;15.82;7.82;;;;;;;6.05;83.51;98705.78;4997643;28;20049;-82